Time;durP1;ratioP1;P1;durP2;ratioP2;P2;SDS_P1;SDS_P2;PMS_P1;PMS_P2;Temp;Humidity;BMP_temperature;BMP_pressure;BME280_temperature;BME280_humidity;BME280_pressure;Samples;Min_cycle;Max_cycle;Signal;HPM_P1;HPM_P2
2022/11/19 00:00:48;;;;;;;;;0.00;0.00;;;;;;;;5113997;27;8810;-92
2022/11/19 00:03:14;;;;;;;;;0.00;0.00;;;;;;;;5114516;27;8807;-91
2022/11/19 00:05:45;;;;;;;;;0.00;0.00;;;;;;;;5114083;27;8821;-93
2022/11/19 00:08:14;;;;;;;;;0.00;0.00;;;;;;;;5112735;27;8792;-93
2022/11/19 00:10:40;;;;;;;;;0.00;0.00;;;;;;;;5113263;27;8914;-94
2022/11/19 00:13:06;;;;;;;;;0.00;0.00;;;;;;;;5106899;27;8924;-93
2022/11/19 00:15:32;;;;;;;;;0.00;0.00;;;;;;;;5102681;27;8819;-94
2022/11/19 00:17:58;;;;;;;;;0.00;0.00;;;;;;;;5113166;27;8824;-93
2022/11/19 00:20:23;;;;;;;;;0.00;0.00;;;;;;;;5112994;27;8807;-93
2022/11/19 00:22:53;;;;;;;;;0.00;0.00;;;;;;;;5096772;27;8824;-93
2022/11/19 00:25:18;;;;;;;;;0.00;0.00;;;;;;;;5087836;28;8818;-94
2022/11/19 00:27:43;;;;;;;;;0.00;0.00;;;;;;;;5092287;28;8894;-93
2022/11/19 00:30:09;;;;;;;;;0.00;0.00;;;;;;;;5091376;28;8817;-94
2022/11/19 00:32:34;;;;;;;;;0.00;0.00;;;;;;;;5092704;28;8878;-93
2022/11/19 00:34:59;;;;;;;;;0.00;0.00;;;;;;;;5093986;28;8849;-93
2022/11/19 00:37:24;;;;;;;;;0.00;0.00;;;;;;;;5096312;27;8827;-93
2022/11/19 00:39:50;;;;;;;;;0.00;0.00;;;;;;;;5112873;28;8898;-93
2022/11/19 00:42:15;;;;;;;;;0.00;0.00;;;;;;;;5112707;27;8818;-92
2022/11/19 00:44:40;;;;;;;;;0.00;0.00;;;;;;;;5094981;27;8814;-94
2022/11/19 00:47:05;;;;;;;;;0.00;0.00;;;;;;;;5092272;28;8813;-94
2022/11/19 00:49:31;;;;;;;;;0.00;0.00;;;;;;;;5091991;28;8910;-94
2022/11/19 00:51:56;;;;;;;;;0.00;0.00;;;;;;;;5092169;28;8829;-94
2022/11/19 00:54:21;;;;;;;;;0.00;0.00;;;;;;;;5091864;28;8813;-94
2022/11/19 00:56:46;;;;;;;;;0.00;0.00;;;;;;;;5092135;27;8825;-93
2022/11/19 00:59:11;;;;;;;;;0.00;0.00;;;;;;;;5091259;28;8841;-93
2022/11/19 01:01:37;;;;;;;;;0.00;0.00;;;;;;;;5092906;28;8809;-93
2022/11/19 01:04:02;;;;;;;;;0.00;0.00;;;;;;;;5092360;28;8813;-93
2022/11/19 01:06:27;;;;;;;;;0.00;0.00;;;;;;;;5110606;27;8849;-93
2022/11/19 01:08:53;;;;;;;;;0.00;0.00;;;;;;;;5115854;27;8819;-93
2022/11/19 01:11:23;;;;;;;;;0.00;0.00;;;;;;;;5115405;27;8876;-93
2022/11/19 01:13:48;;;;;;;;;0.00;0.00;;;;;;;;5114431;27;8799;-92
2022/11/19 01:16:15;;;;;;;;;0.00;0.00;;;;;;;;5112595;27;8945;-93
2022/11/19 01:18:41;;;;;;;;;0.00;0.00;;;;;;;;5112508;27;8795;-93
2022/11/19 01:21:07;;;;;;;;;0.00;0.00;;;;;;;;5094440;28;8806;-92
2022/11/19 01:23:33;;;;;;;;;0.00;0.00;;;;;;;;5091282;28;8832;-93
2022/11/19 01:25:58;;;;;;;;;0.00;0.00;;;;;;;;5091704;27;8833;-93
2022/11/19 01:28:23;;;;;;;;;0.00;0.00;;;;;;;;5090594;28;8805;-94
2022/11/19 01:30:48;;;;;;;;;0.00;0.00;;;;;;;;5091856;28;8801;-93
2022/11/19 01:33:14;;;;;;;;;0.00;0.00;;;;;;;;5088016;28;8832;-93
2022/11/19 01:35:39;;;;;;;;;2.33;2.33;;;;;;;;5103117;27;8861;-93
2022/11/19 01:38:05;;;;;;;;;0.00;0.00;;;;;;;;5112083;27;8823;-94
2022/11/19 01:40:31;;;;;;;;;0.00;0.00;;;;;;;;5111667;27;8942;-93
2022/11/19 01:42:56;;;;;;;;;0.00;0.00;;;;;;;;5110539;27;8810;-93
2022/11/19 01:45:21;;;;;;;;;0.00;0.00;;;;;;;;5092595;28;8836;-93
2022/11/19 01:47:47;;;;;;;;;0.67;0.67;;;;;;;;5091170;28;8886;-93
2022/11/19 01:50:12;;;;;;;;;0.00;0.00;;;;;;;;5090763;28;9559;-93
2022/11/19 01:52:38;;;;;;;;;0.00;0.00;;;;;;;;5091280;28;8832;-95
2022/11/19 01:55:04;;;;;;;;;0.00;0.00;;;;;;;;5103277;28;8815;-93
2022/11/19 01:57:30;;;;;;;;;0.00;0.00;;;;;;;;5112034;27;8815;-94
2022/11/19 01:59:55;;;;;;;;;0.00;0.00;;;;;;;;5111883;27;8810;-93
2022/11/19 02:02:21;;;;;;;;;0.00;0.00;;;;;;;;5114129;28;8810;-94
2022/11/19 02:04:49;;;;;;;;;0.00;0.00;;;;;;;;5113285;27;8957;-94
2022/11/19 02:07:15;;;;;;;;;0.00;0.00;;;;;;;;5113645;27;8933;-95
2022/11/19 02:09:41;;;;;;;;;0.00;0.00;;;;;;;;5113460;27;8860;-94
2022/11/19 02:12:24;;;;;;;;;0.00;0.00;;;;;;;;5112720;27;8819;-93
2022/11/19 02:15:08;;;;;;;;;0.00;0.00;;;;;;;;5113680;27;8819;-94
2022/11/19 02:17:34;;;;;;;;;12.00;12.00;;;;;;;;5115375;28;8880;-94
2022/11/19 02:20:02;;;;;;;;;0.00;0.00;;;;;;;;5115812;27;8851;-92
2022/11/19 02:22:40;;;;;;;;;0.00;0.00;;;;;;;;5102679;28;9217;-93
2022/11/19 02:25:05;;;;;;;;;0.00;0.00;;;;;;;;5092992;28;8813;-94
2022/11/19 02:27:46;;;;;;;;;0.00;0.00;;;;;;;;5101733;28;8848;-94
2022/11/19 02:30:15;;;;;;;;;0.00;0.00;;;;;;;;5090178;28;8797;-94
2022/11/19 02:32:57;;;;;;;;;0.00;0.00;;;;;;;;5090852;28;8820;-94
2022/11/19 02:35:28;;;;;;;;;0.00;0.00;;;;;;;;5090728;28;8836;-93
2022/11/19 02:37:53;;;;;;;;;0.00;0.00;;;;;;;;5090687;28;8789;-92
2022/11/19 02:40:22;;;;;;;;;51.00;48.00;;;;;;;;5090280;28;8809;-95
2022/11/19 02:42:56;;;;;;;;;0.00;0.00;;;;;;;;5090760;28;9892;-94
2022/11/19 02:45:25;;;;;;;;;0.00;0.00;;;;;;;;5093932;28;8851;-92
2022/11/19 02:47:53;;;;;;;;;0.00;0.00;;;;;;;;5090530;28;8801;-94
2022/11/19 02:50:20;;;;;;;;;0.00;0.00;;;;;;;;5090289;28;8813;-94
2022/11/19 02:52:46;;;;;;;;;0.00;0.00;;;;;;;;5090461;28;8813;-93
2022/11/19 02:55:12;;;;;;;;;0.00;0.00;;;;;;;;5089814;28;8829;-94
2022/11/19 02:57:38;;;;;;;;;0.00;0.00;;;;;;;;5090286;28;8821;-93
2022/11/19 03:05:41;;;;;;;;;0.00;0.00;;;;;;;;5071425;28;8804;-95
2022/11/19 03:08:06;;;;;;;;;0.00;0.00;;;;;;;;5070507;28;8796;-93
2022/11/19 03:10:37;;;;;;;;;0.00;0.00;;;;;;;;5073810;28;8828;-94
2022/11/19 03:18:45;;;;;;;;;0.00;0.00;;;;;;;;5074031;28;8765;-94
2022/11/19 03:21:25;;;;;;;;;0.00;0.00;;;;;;;;5090784;28;8792;-95
2022/11/19 03:23:57;;;;;;;;;0.00;0.00;;;;;;;;5074040;28;8804;-92
2022/11/19 03:26:29;;;;;;;;;0.00;0.00;;;;;;;;5092820;28;8855;-93
2022/11/19 03:28:55;;;;;;;;;0.00;0.00;;;;;;;;5089317;28;8822;-94
2022/11/19 03:31:22;;;;;;;;;0.00;0.00;;;;;;;;5093450;28;8805;-94
2022/11/19 03:33:51;;;;;;;;;0.00;0.00;;;;;;;;5092883;28;8802;-94
2022/11/19 03:36:18;;;;;;;;;0.00;0.00;;;;;;;;5093435;28;8809;-93
2022/11/19 03:38:48;;;;;;;;;0.00;0.00;;;;;;;;5092442;28;8797;-94
2022/11/19 03:41:16;;;;;;;;;0.00;0.00;;;;;;;;5093477;28;8796;-95
2022/11/19 03:43:42;;;;;;;;;0.00;0.00;;;;;;;;5092861;28;8935;-93
2022/11/19 03:46:13;;;;;;;;;0.00;0.00;;;;;;;;5093315;28;8801;-95
2022/11/19 03:48:39;;;;;;;;;0.00;0.00;;;;;;;;5100316;27;8850;-94
2022/11/19 03:51:17;;;;;;;;;0.00;0.00;;;;;;;;5113789;27;8896;-94
2022/11/19 03:53:42;;;;;;;;;0.00;0.00;;;;;;;;5112817;27;8795;-94
2022/11/19 03:56:09;;;;;;;;;0.00;0.00;;;;;;;;5113088;27;8845;-94
2022/11/19 03:58:39;;;;;;;;;0.00;0.00;;;;;;;;5112144;27;8822;-93
2022/11/19 04:01:04;;;;;;;;;0.00;0.00;;;;;;;;5113549;27;8830;-94
2022/11/19 04:03:29;;;;;;;;;0.00;0.00;;;;;;;;5113077;28;8835;-94
2022/11/19 04:05:54;;;;;;;;;0.00;0.00;;;;;;;;5113490;27;8802;-94
2022/11/19 04:08:20;;;;;;;;;0.00;0.00;;;;;;;;5112836;27;8830;-94
2022/11/19 04:10:45;;;;;;;;;0.00;0.00;;;;;;;;5113238;27;8822;-93
2022/11/19 04:13:10;;;;;;;;;0.00;0.00;;;;;;;;5112355;28;8822;-94
2022/11/19 04:15:35;;;;;;;;;0.00;0.00;;;;;;;;5112893;27;8865;-94
2022/11/19 04:18:00;;;;;;;;;0.00;0.00;;;;;;;;5112919;27;8944;-94
2022/11/19 04:20:26;;;;;;;;;0.00;0.00;;;;;;;;5112861;28;8799;-94
2022/11/19 04:22:51;;;;;;;;;0.00;0.00;;;;;;;;5098904;28;8970;-94
2022/11/19 04:25:16;;;;;;;;;0.00;0.00;;;;;;;;5092072;28;8841;-94
2022/11/19 04:27:43;;;;;;;;;0.00;0.00;;;;;;;;5093025;28;8814;-95
2022/11/19 04:30:09;;;;;;;;;0.00;0.00;;;;;;;;5093174;28;8883;-95
2022/11/19 04:32:34;;;;;;;;;0.00;0.00;;;;;;;;5093129;28;8809;-93
2022/11/19 04:34:59;;;;;;;;;0.00;0.00;;;;;;;;5095421;28;8846;-94
2022/11/19 04:37:24;;;;;;;;;0.00;0.00;;;;;;;;5097183;28;8821;-92
2022/11/19 04:39:50;;;;;;;;;0.00;0.00;;;;;;;;5114982;27;8823;-94
2022/11/19 04:42:15;;;;;;;;;0.00;0.00;;;;;;;;5113254;27;8807;-94
2022/11/19 04:44:40;;;;;;;;;0.00;0.00;;;;;;;;5111752;27;8879;-94
2022/11/19 04:47:05;;;;;;;;;0.00;0.00;;;;;;;;5113840;28;9547;-94
2022/11/19 04:49:31;;;;;;;;;0.00;0.00;;;;;;;;5111964;27;8815;-94
2022/11/19 04:51:56;;;;;;;;;0.00;0.00;;;;;;;;5113130;27;8877;-94
2022/11/19 04:54:21;;;;;;;;;0.00;0.00;;;;;;;;5112796;28;8818;-95
2022/11/19 04:56:46;;;;;;;;;0.00;0.00;;;;;;;;5113197;27;8898;-95
2022/11/19 04:59:11;;;;;;;;;0.00;0.00;;;;;;;;5111584;27;8795;-94
2022/11/19 05:01:37;;;;;;;;;0.00;0.00;;;;;;;;5091453;28;8824;-95
2022/11/19 05:04:02;;;;;;;;;0.00;0.00;;;;;;;;5071169;28;8839;-94
2022/11/19 05:06:27;;;;;;;;;0.00;0.00;;;;;;;;5072474;28;8808;-94
2022/11/19 05:08:52;;;;;;;;;0.00;0.00;;;;;;;;5078672;28;8837;-94
2022/11/19 05:11:18;;;;;;;;;0.00;0.00;;;;;;;;5112446;28;8837;-94
2022/11/19 05:13:43;;;;;;;;;0.00;0.00;;;;;;;;5111806;28;8900;-94
2022/11/19 05:16:08;;;;;;;;;6.00;6.00;;;;;;;;5111969;27;8811;-93
2022/11/19 05:18:33;;;;;;;;;0.00;0.00;;;;;;;;5111678;27;9263;-94
2022/11/19 05:20:59;;;;;;;;;0.00;0.00;;;;;;;;5112700;27;8815;-94
2022/11/19 05:23:24;;;;;;;;;0.00;0.00;;;;;;;;5097595;28;8829;-93
2022/11/19 05:25:49;;;;;;;;;0.00;0.00;;;;;;;;5091840;27;8813;-94
2022/11/19 05:28:14;;;;;;;;;0.00;0.00;;;;;;;;5090674;28;8935;-94
2022/11/19 05:30:40;;;;;;;;;0.00;0.00;;;;;;;;5091023;28;8825;-95
2022/11/19 05:33:05;;;;;;;;;0.00;0.00;;;;;;;;5091578;28;8805;-94
2022/11/19 05:35:30;;;;;;;;;0.00;0.00;;;;;;;;5111710;27;8945;-94
2022/11/19 05:37:55;;;;;;;;;0.00;0.00;;;;;;;;5113829;27;8895;-94
2022/11/19 05:40:21;;;;;;;;;0.00;0.00;;;;;;;;5113703;27;8835;-95
2022/11/19 05:42:46;;;;;;;;;0.00;0.00;;;;;;;;5113366;28;8838;-93
2022/11/19 05:45:11;;;;;;;;;0.00;0.00;;;;;;;;5114715;27;8948;-93
2022/11/19 05:47:37;;;;;;;;;0.00;0.00;;;;;;;;5115530;28;8849;-94
2022/11/19 05:50:02;;;;;;;;;0.00;0.00;;;;;;;;5103279;28;8844;-94
2022/11/19 05:52:27;;;;;;;;;0.00;0.00;;;;;;;;5091753;28;8821;-93
2022/11/19 05:54:53;;;;;;;;;0.00;0.00;;;;;;;;5091541;28;8924;-95
2022/11/19 05:57:18;;;;;;;;;0.00;0.00;;;;;;;;5092047;28;8837;-94
2022/11/19 05:59:43;;;;;;;;;0.00;0.00;;;;;;;;5090863;28;8809;-94
2022/11/19 06:02:08;;;;;;;;;0.00;0.00;;;;;;;;5091140;28;8987;-94
2022/11/19 06:04:34;;;;;;;;;0.00;0.00;;;;;;;;5091866;27;8826;-94
2022/11/19 06:06:59;;;;;;;;;0.00;0.00;;;;;;;;5091689;28;8801;-95
2022/11/19 06:09:24;;;;;;;;;0.00;0.00;;;;;;;;5090735;27;8817;-94
2022/11/19 06:11:50;;;;;;;;;0.00;0.00;;;;;;;;5091341;28;8857;-94
2022/11/19 06:14:16;;;;;;;;;0.00;0.00;;;;;;;;5090304;28;8822;-94
2022/11/19 06:16:41;;;;;;;;;0.00;0.00;;;;;;;;5090676;28;8930;-94
2022/11/19 06:19:06;;;;;;;;;0.00;0.00;;;;;;;;5090516;28;8814;-94
2022/11/19 06:21:31;;;;;;;;;0.00;0.00;;;;;;;;5101985;28;8837;-95
2022/11/19 06:23:57;;;;;;;;;0.00;0.00;;;;;;;;5090751;28;8874;-94
2022/11/19 06:26:26;;;;;;;;;0.00;0.00;;;;;;;;5091015;28;8805;-94
2022/11/19 06:28:52;;;;;;;;;0.00;0.00;;;;;;;;5092545;28;8809;-94
2022/11/19 06:31:17;;;;;;;;;0.00;0.00;;;;;;;;5090609;28;8883;-93
2022/11/19 06:33:43;;;;;;;;;0.00;0.00;;;;;;;;5091065;28;8827;-94
2022/11/19 06:36:08;;;;;;;;;0.00;0.00;;;;;;;;5090853;28;8849;-93
2022/11/19 06:38:33;;;;;;;;;0.00;0.00;;;;;;;;5091196;28;8821;-94
2022/11/19 06:40:58;;;;;;;;;0.00;0.00;;;;;;;;5111518;28;8925;-94
2022/11/19 06:43:24;;;;;;;;;0.00;0.00;;;;;;;;5113472;27;8911;-95
2022/11/19 06:45:49;;;;;;;;;0.00;0.00;;;;;;;;5114581;27;8795;-94
2022/11/19 06:48:14;;;;;;;;;0.00;0.00;;;;;;;;5114919;27;9585;-94
2022/11/19 06:50:39;;;;;;;;;0.00;0.00;;;;;;;;5115142;27;8915;-94
2022/11/19 06:53:04;;;;;;;;;0.00;0.00;;;;;;;;5116047;28;8798;-94
2022/11/19 06:55:30;;;;;;;;;0.00;0.00;;;;;;;;5099098;27;8813;-93
2022/11/19 06:57:56;;;;;;;;;0.00;0.00;;;;;;;;5097083;28;8797;-93
2022/11/19 07:00:21;;;;;;;;;0.00;0.00;;;;;;;;5096613;27;8793;-94
2022/11/19 07:02:46;;;;;;;;;0.00;0.00;;;;;;;;5094012;28;8939;-94
2022/11/19 07:05:12;;;;;;;;;0.00;0.00;;;;;;;;5075365;28;8820;-87
2022/11/19 07:07:37;;;;;;;;;0.00;0.00;;;;;;;;5095745;28;8852;-88
2022/11/19 07:10:02;;;;;;;;;0.00;0.00;;;;;;;;5080384;28;8890;-89
2022/11/19 07:12:27;;;;;;;;;0.00;0.00;;;;;;;;5084278;28;9707;-88
2022/11/19 07:14:53;;;;;;;;;0.00;0.00;;;;;;;;5081455;28;8853;-90
2022/11/19 07:17:18;;;;;;;;;0.00;0.00;;;;;;;;5088813;28;8832;-91
2022/11/19 07:19:43;;;;;;;;;0.00;0.00;;;;;;;;5096093;28;8802;-91
2022/11/19 07:22:08;;;;;;;;;0.00;0.00;;;;;;;;5091588;28;8914;-89
2022/11/19 07:24:33;;;;;;;;;0.00;0.00;;;;;;;;5093767;28;9541;-88
2022/11/19 07:26:59;;;;;;;;;0.33;0.33;;;;;;;;5095629;28;8808;-85
2022/11/19 07:29:24;;;;;;;;;0.00;0.00;;;;;;;;5096890;27;8816;-86
2022/11/19 07:31:52;;;;;;;;;0.00;0.00;;;;;;;;5111831;27;8806;-86
2022/11/19 07:34:17;;;;;;;;;0.00;0.00;;;;;;;;5094642;28;8861;-87
2022/11/19 07:36:42;;;;;;;;;0.00;0.00;;;;;;;;5128836;27;8822;-88
2022/11/19 07:39:08;;;;;;;;;0.00;0.00;;;;;;;;5133853;27;9552;-87
2022/11/19 07:44:17;;;;;;;;;0.00;0.00;;;;;;;;5128601;27;8781;-89
2022/11/19 07:46:43;;;;;;;;;0.00;0.00;;;;;;;;5104881;27;8860;-88
2022/11/19 07:49:08;;;;;;;;;0.00;0.00;;;;;;;;5100743;28;8857;-88
2022/11/19 07:51:33;;;;;;;;;0.00;0.00;;;;;;;;5093364;28;8800;-88
2022/11/19 07:53:58;;;;;;;;;0.00;0.00;;;;;;;;5112799;27;8817;-88
2022/11/19 07:56:24;;;;;;;;;0.00;0.00;;;;;;;;5117705;27;8920;-88
2022/11/19 07:58:49;;;;;;;;;0.00;0.00;;;;;;;;5112829;27;8822;-91
2022/11/19 08:01:18;;;;;;;;;0.00;0.00;;;;;;;;5124640;27;8820;-88
2022/11/19 08:03:47;;;;;;;;;0.00;0.00;;;;;;;;5115453;27;8762;-88
2022/11/19 08:06:14;;;;;;;;;0.00;0.00;;;;;;;;5113215;28;8812;-88
2022/11/19 08:08:39;;;;;;;;;0.00;0.00;;;;;;;;5113814;27;8789;-88
2022/11/19 08:11:05;;;;;;;;;0.00;0.00;;;;;;;;5114693;27;8794;-88
2022/11/19 08:13:30;;;;;;;;;0.00;0.00;;;;;;;;5128982;27;8822;-89
2022/11/19 08:16:00;;;;;;;;;0.00;0.00;;;;;;;;5133848;27;8917;-88
2022/11/19 08:18:25;;;;;;;;;0.00;0.00;;;;;;;;5116095;27;8777;-90
2022/11/19 08:20:50;;;;;;;;;0.00;0.00;;;;;;;;5128618;27;8893;-90
2022/11/19 08:23:16;;;;;;;;;0.00;0.00;;;;;;;;5096559;27;9582;-89
2022/11/19 08:25:44;;;;;;;;;0.00;0.00;;;;;;;;5119530;27;8881;-90
2022/11/19 08:28:10;;;;;;;;;0.00;0.00;;;;;;;;5103883;27;8801;-90
2022/11/19 08:30:35;;;;;;;;;0.00;0.00;;;;;;;;5118941;27;8911;-90
2022/11/19 08:33:00;;;;;;;;;0.00;0.00;;;;;;;;5098487;27;8838;-89
2022/11/19 08:35:25;;;;;;;;;0.00;0.00;;;;;;;;5118676;27;8830;-89
2022/11/19 08:37:51;;;;;;;;;0.00;0.00;;;;;;;;5102216;27;9406;-88
2022/11/19 08:40:17;;;;;;;;;0.00;0.00;;;;;;;;5114749;27;8818;-91
2022/11/19 08:43:00;;;;;;;;;0.00;0.00;;;;;;;;5112261;27;8836;-89
2022/11/19 08:45:30;;;;;;;;;0.00;0.00;;;;;;;;5126109;27;8810;-89
2022/11/19 08:47:56;;;;;;;;;0.00;0.00;;;;;;;;5123214;27;8774;-89
2022/11/19 08:50:21;;;;;;;;;0.00;0.00;;;;;;;;5112219;27;8807;-91
2022/11/19 08:52:52;;;;;;;;;0.00;0.00;;;;;;;;5093714;28;8832;-88
2022/11/19 08:55:17;;;;;;;;;0.00;0.00;;;;;;;;5112174;28;8797;-90
2022/11/19 08:57:42;;;;;;;;;0.00;0.00;;;;;;;;5093708;28;8824;-90
2022/11/19 09:00:08;;;;;;;;;0.00;0.00;;;;;;;;5104966;28;8810;-89
2022/11/19 09:02:33;;;;;;;;;0.00;0.00;;;;;;;;5096581;28;8816;-90
2022/11/19 09:04:58;;;;;;;;;0.00;0.00;;;;;;;;5084972;28;8818;-90
2022/11/19 09:07:23;;;;;;;;;0.00;0.00;;;;;;;;5091813;27;8799;-89
2022/11/19 09:09:48;;;;;;;;;0.00;0.00;;;;;;;;5112490;27;9730;-89
2022/11/19 09:12:13;;;;;;;;;0.00;0.00;;;;;;;;5114015;27;9325;-89
2022/11/19 09:14:39;;;;;;;;;0.00;0.00;;;;;;;;5112361;27;9791;-89
2022/11/19 09:17:04;;;;;;;;;0.00;0.00;;;;;;;;5132778;27;8998;-89
2022/11/19 09:19:29;;;;;;;;;0.00;0.00;;;;;;;;5115793;27;8843;-90
2022/11/19 09:21:54;;;;;;;;;0.00;0.00;;;;;;;;5112192;28;8827;-89
2022/11/19 09:24:19;;;;;;;;;0.00;0.00;;;;;;;;5093338;28;9425;-90
2022/11/19 09:26:44;;;;;;;;;0.00;0.00;;;;;;;;5103659;27;8960;-89
2022/11/19 09:29:10;;;;;;;;;0.00;0.00;;;;;;;;5096435;27;8830;-89
2022/11/19 09:31:35;;;;;;;;;0.00;0.00;;;;;;;;5100594;27;9135;-90
2022/11/19 09:34:00;;;;;;;;;0.00;0.00;;;;;;;;5131541;27;8826;-90
2022/11/19 09:36:25;;;;;;;;;0.00;0.00;;;;;;;;5132523;27;8814;-90
2022/11/19 09:38:54;;;;;;;;;0.00;0.00;;;;;;;;5108293;27;8832;-90
2022/11/19 09:41:23;;;;;;;;;0.00;0.00;;;;;;;;5092835;28;8785;-89
2022/11/19 09:43:48;;;;;;;;;0.00;0.00;;;;;;;;5109812;28;8819;-90
2022/11/19 09:46:23;;;;;;;;;0.00;0.00;;;;;;;;5093709;28;8793;-90
2022/11/19 09:48:49;;;;;;;;;0.00;0.00;;;;;;;;5110548;28;10229;-90
2022/11/19 09:51:17;;;;;;;;;0.00;0.00;;;;;;;;5111643;28;9562;-91
2022/11/19 09:53:45;;;;;;;;;0.00;0.00;;;;;;;;5093086;28;8785;-90
2022/11/19 09:56:14;;;;;;;;;0.00;0.00;;;;;;;;5112996;27;8812;-91
2022/11/19 09:58:44;;;;;;;;;0.00;0.00;;;;;;;;5091921;28;8809;-91
2022/11/19 10:01:13;;;;;;;;;0.00;0.00;;;;;;;;5093296;28;8784;-91
2022/11/19 10:03:40;;;;;;;;;0.00;0.00;;;;;;;;5092683;28;8817;-91
2022/11/19 10:06:08;;;;;;;;;0.00;0.00;;;;;;;;5092610;28;8805;-91
2022/11/19 10:08:33;;;;;;;;;0.00;0.00;;;;;;;;5088322;28;8814;-91
2022/11/19 10:11:17;;;;;;;;;0.00;0.00;;;;;;;;5073254;28;8817;-91
2022/11/19 10:13:50;;;;;;;;;0.00;0.00;;;;;;;;5071114;28;8790;-91
2022/11/19 10:16:15;;;;;;;;;0.00;0.00;;;;;;;;5072627;28;9740;-91
2022/11/19 10:18:47;;;;;;;;;1.00;1.00;;;;;;;;5072564;28;8861;-92
2022/11/19 10:21:28;;;;;;;;;0.00;0.00;;;;;;;;5098101;27;8868;-90
2022/11/19 10:24:16;;;;;;;;;0.00;0.00;;;;;;;;5088185;27;8795;-90
2022/11/19 10:26:41;;;;;;;;;0.00;0.00;;;;;;;;5071951;28;8830;-92
2022/11/19 10:29:15;;;;;;;;;0.00;0.00;;;;;;;;5106892;27;8805;-91
2022/11/19 10:31:45;;;;;;;;;0.00;0.00;;;;;;;;5131451;27;8803;-90
2022/11/19 10:34:26;;;;;;;;;0.00;0.00;;;;;;;;5132429;27;9569;-92
2022/11/19 10:37:00;;;;;;;;;0.00;0.00;;;;;;;;5114125;27;9636;-91
2022/11/19 10:39:38;;;;;;;;;0.00;0.00;;;;;;;;5096880;27;8830;-88
2022/11/19 10:42:17;;;;;;;;;0.00;0.00;;;;;;;;5126575;27;8786;-90
2022/11/19 10:44:48;;;;;;;;;0.00;0.00;;;;;;;;5097517;27;8820;-90
2022/11/19 10:47:46;;;;;;;;;0.00;0.00;;;;;;;;5109527;27;8795;-91
2022/11/19 10:50:16;;;;;;;;;0.00;0.00;;;;;;;;5085878;28;11413;-90
2022/11/19 10:52:43;;;;;;;;;0.00;0.00;;;;;;;;5087727;27;8797;-90
2022/11/19 10:55:26;;;;;;;;;0.00;0.00;;;;;;;;5097116;28;8797;-90
2022/11/19 10:57:59;;;;;;;;;0.00;0.00;;;;;;;;5092173;28;8820;-90
2022/11/19 11:00:24;;;;;;;;;0.00;0.00;;;;;;;;5115849;27;8807;-89
2022/11/19 11:02:53;;;;;;;;;0.00;0.00;;;;;;;;5094146;28;8836;-93
2022/11/19 11:05:18;;;;;;;;;0.00;0.00;;;;;;;;5092875;27;8800;-92
2022/11/19 11:07:49;;;;;;;;;0.00;0.00;;;;;;;;5092128;28;11440;-92
2022/11/19 11:10:26;;;;;;;;;0.00;0.00;;;;;;;;5118645;27;8809;-92
2022/11/19 11:15:43;;;;;;;;;0.00;0.00;;;;;;;;5110563;28;8784;-93
2022/11/19 11:18:09;;;;;;;;;0.00;0.00;;;;;;;;5124553;27;8808;-91
2022/11/19 11:20:35;;;;;;;;;0.00;0.00;;;;;;;;5091658;28;8815;-89
2022/11/19 11:23:03;;;;;;;;;0.00;0.00;;;;;;;;5108090;28;8789;-90
2022/11/19 11:25:28;;;;;;;;;0.00;0.00;;;;;;;;5095237;28;8816;-88
2022/11/19 11:28:02;;;;;;;;;0.00;0.00;;;;;;;;5105135;28;8820;-88
2022/11/19 11:30:27;;;;;;;;;0.00;0.00;;;;;;;;5113175;27;8804;-88
2022/11/19 11:32:53;;;;;;;;;0.00;0.00;;;;;;;;5113370;28;11459;-90
2022/11/19 11:35:27;;;;;;;;;0.00;0.00;;;;;;;;5094372;28;8852;-92
2022/11/19 11:37:53;;;;;;;;;0.00;0.00;;;;;;;;5093984;28;9683;-90
2022/11/19 11:40:20;;;;;;;;;0.00;0.00;;;;;;;;5097466;28;8835;-89
2022/11/19 11:42:46;;;;;;;;;0.00;0.00;;;;;;;;5112186;28;8781;-88
2022/11/19 11:45:19;;;;;;;;;0.00;0.00;;;;;;;;5111551;28;8800;-89
2022/11/19 11:47:45;;;;;;;;;0.00;0.00;;;;;;;;5093906;28;8815;-89
2022/11/19 11:50:16;;;;;;;;;0.00;0.00;;;;;;;;5093542;27;11396;-90
2022/11/19 11:52:43;;;;;;;;;0.00;0.00;;;;;;;;5093516;27;8801;-89
2022/11/19 11:55:11;;;;;;;;;0.00;0.00;;;;;;;;5093949;28;11404;-89
2022/11/19 11:57:49;;;;;;;;;0.00;0.00;;;;;;;;5112181;28;12179;-89
2022/11/19 12:00:33;;;;;;;;;0.00;0.00;;;;;;;;5111041;28;11408;-89
2022/11/19 12:03:01;;;;;;;;;0.00;0.00;;;;;;;;5093794;28;11474;-89
2022/11/19 12:05:28;;;;;;;;;0.00;0.00;;;;;;;;5111808;27;11385;-89
2022/11/19 12:08:02;;;;;;;;;0.00;0.00;;;;;;;;5111891;27;11533;-89
2022/11/19 12:10:32;;;;;;;;;0.00;0.00;;;;;;;;5106646;27;11419;-88
2022/11/19 12:13:09;;;;;;;;;0.00;0.00;;;;;;;;5110815;28;8784;-89
2022/11/19 12:15:49;;;;;;;;;0.00;0.00;;;;;;;;5092375;28;11421;-89
2022/11/19 12:18:26;;;;;;;;;0.00;0.00;;;;;;;;5109617;28;11415;-88
2022/11/19 12:20:58;;;;;;;;;0.00;0.00;;;;;;;;5104432;27;11475;-89
2022/11/19 12:23:41;;;;;;;;;0.00;0.00;;;;;;;;5107761;28;11407;-89
2022/11/19 12:26:13;;;;;;;;;0.00;0.00;;;;;;;;5092454;28;11424;-88
2022/11/19 12:28:48;;;;;;;;;0.00;0.00;;;;;;;;5092589;28;8808;-88
2022/11/19 12:31:13;;;;;;;;;0.00;0.00;;;;;;;;5111872;28;11431;-88
2022/11/19 12:33:49;;;;;;;;;0.00;0.00;;;;;;;;5111272;28;11409;-88
2022/11/19 12:36:33;;;;;;;;;0.00;0.00;;;;;;;;5093487;28;10164;-88
2022/11/19 12:39:01;;;;;;;;;1.00;1.00;;;;;;;;5111682;27;11393;-92
2022/11/19 12:41:45;;;;;;;;;0.00;0.00;;;;;;;;5093165;28;11416;-91
2022/11/19 12:44:16;;;;;;;;;0.00;0.00;;;;;;;;5091695;28;11409;-93
2022/11/19 12:46:49;;;;;;;;;0.00;0.00;;;;;;;;5094117;28;11543;-93
2022/11/19 12:49:33;;;;;;;;;0.00;0.00;;;;;;;;5093440;28;8812;-93
2022/11/19 12:52:17;;;;;;;;;0.00;0.00;;;;;;;;5105578;28;11392;-94
2022/11/19 12:54:43;;;;;;;;;0.00;0.00;;;;;;;;5092806;28;11421;-92
2022/11/19 12:57:27;;;;;;;;;0.00;0.00;;;;;;;;5095370;28;11448;-92
2022/11/19 13:00:03;;;;;;;;;0.00;0.00;;;;;;;;5089302;28;8805;-93
2022/11/19 13:02:31;;;;;;;;;0.00;0.00;;;;;;;;5094126;28;11397;-93
2022/11/19 13:05:00;;;;;;;;;0.00;0.00;;;;;;;;5112620;28;12245;-93
2022/11/19 13:07:32;;;;;;;;;0.00;0.00;;;;;;;;5094086;28;11602;-92
2022/11/19 13:10:12;;;;;;;;;0.00;0.00;;;;;;;;5094094;28;11526;-92
2022/11/19 13:12:40;;;;;;;;;0.00;0.00;;;;;;;;5110527;27;11396;-93
2022/11/19 13:15:05;;;;;;;;;0.00;0.00;;;;;;;;5097304;27;11387;-94
2022/11/19 13:17:39;;;;;;;;;0.00;0.00;;;;;;;;5111940;28;11436;-91
2022/11/19 13:20:06;;;;;;;;;0.00;0.00;;;;;;;;5093838;27;8808;-92
2022/11/19 13:22:34;;;;;;;;;0.00;0.00;;;;;;;;5093274;28;11529;-91
2022/11/19 13:25:02;;;;;;;;;0.00;0.00;;;;;;;;5092310;28;11412;-92
2022/11/19 13:27:28;;;;;;;;;0.00;0.00;;;;;;;;5110764;28;11393;-93
2022/11/19 13:29:54;;;;;;;;;0.00;0.00;;;;;;;;5091481;28;11440;-92
2022/11/19 13:32:25;;;;;;;;;0.00;0.00;;;;;;;;5110237;28;11429;-94
2022/11/19 13:35:09;;;;;;;;;0.00;0.00;;;;;;;;5110992;28;8781;-92
2022/11/19 13:37:58;;;;;;;;;0.00;0.00;;;;;;;;5092480;28;11432;-92
2022/11/19 13:40:46;;;;;;;;;0.00;0.00;;;;;;;;5095647;28;11405;-92
2022/11/19 13:46:02;;;;;;;;;0.00;0.00;;;;;;;;5046166;28;11417;-91
2022/11/19 13:48:34;;;;;;;;;0.00;0.00;;;;;;;;5048141;28;11429;-92
2022/11/19 13:51:02;;;;;;;;;0.00;0.00;;;;;;;;5030422;28;11454;-91
2022/11/19 13:53:33;;;;;;;;;0.00;0.00;;;;;;;;5046726;28;11445;-92
2022/11/19 13:55:58;;;;;;;;;0.00;0.00;;;;;;;;5029997;28;11441;-92
2022/11/19 13:58:34;;;;;;;;;0.00;0.00;;;;;;;;5030005;28;11464;-92
2022/11/19 14:00:59;;;;;;;;;0.00;0.00;;;;;;;;5045958;28;8807;-92
2022/11/19 14:03:44;;;;;;;;;0.00;0.00;;;;;;;;5030201;28;11519;-92
2022/11/19 14:06:27;;;;;;;;;0.00;0.00;;;;;;;;5030228;28;10451;-92
2022/11/19 14:09:19;;;;;;;;;0.00;0.00;;;;;;;;5030115;28;8827;-91
2022/11/19 14:12:02;;;;;;;;;0.00;0.00;;;;;;;;5029615;28;11425;-92
2022/11/19 14:28:43;;;;;;;;;0.00;0.00;;;;;;;;5108807;28;8769;-92
2022/11/19 14:31:09;;;;;;;;;0.00;0.00;;;;;;;;5090477;28;11432;-91
2022/11/19 14:33:41;;;;;;;;;0.00;0.00;;;;;;;;5109749;28;8821;-92
2022/11/19 14:36:10;;;;;;;;;0.00;0.00;;;;;;;;5091037;28;8904;-92
2022/11/19 14:38:36;;;;;;;;;0.00;0.00;;;;;;;;5091664;28;11400;-91
2022/11/19 14:41:13;;;;;;;;;0.00;0.00;;;;;;;;5091545;28;11417;-91
2022/11/19 14:44:08;;;;;;;;;0.00;0.00;;;;;;;;5083724;28;11433;-92
2022/11/19 14:46:34;;;;;;;;;0.00;0.00;;;;;;;;4993839;28;8809;-91
2022/11/19 14:49:01;;;;;;;;;0.00;0.00;;;;;;;;4989822;28;11416;-91
2022/11/19 14:51:29;;;;;;;;;0.00;0.00;;;;;;;;5007146;28;11468;-90
2022/11/19 14:53:57;;;;;;;;;0.00;0.00;;;;;;;;4987902;28;11643;-90
2022/11/19 14:56:23;;;;;;;;;0.00;0.00;;;;;;;;4992459;28;8820;-91
2022/11/19 14:58:54;;;;;;;;;0.00;0.00;;;;;;;;5011077;28;9014;-91
2022/11/19 15:01:20;;;;;;;;;0.00;0.00;;;;;;;;4991255;28;8841;-88
2022/11/19 15:03:47;;;;;;;;;0.00;0.00;;;;;;;;4991668;28;11413;-88
2022/11/19 15:06:15;;;;;;;;;0.00;0.00;;;;;;;;4992943;28;8987;-89
2022/11/19 15:08:51;;;;;;;;;0.00;0.00;;;;;;;;4993971;28;11419;-88
2022/11/19 15:11:16;;;;;;;;;0.00;0.00;;;;;;;;4993345;28;8823;-88
2022/11/19 15:13:42;;;;;;;;;0.00;0.00;;;;;;;;4999751;28;11519;-88
2022/11/19 15:16:16;;;;;;;;;0.00;0.00;;;;;;;;5007591;28;8832;-89
2022/11/19 15:18:50;;;;;;;;;0.00;0.00;;;;;;;;5009838;28;11382;-88
2022/11/19 15:21:26;;;;;;;;;0.00;0.00;;;;;;;;5009846;28;11410;-90
2022/11/19 15:24:00;;;;;;;;;0.00;0.00;;;;;;;;5076438;28;12366;-88
2022/11/19 15:26:25;;;;;;;;;0.00;0.00;;;;;;;;5090741;28;11494;-89
2022/11/19 15:28:56;;;;;;;;;0.00;0.00;;;;;;;;5113271;27;11419;-88
2022/11/19 15:31:29;;;;;;;;;0.00;0.00;;;;;;;;5095578;27;9716;-89
2022/11/19 15:34:13;;;;;;;;;0.00;0.00;;;;;;;;5110716;27;11409;-87